Fargo, ND

2:25 PM CST on December 10, 2016 (GMT -0600)
Northport | | Change Station

Elev 899 ft 46.91 °N, 96.79 °W | Updated 6 seconds ago

Overcast
Overcast
1.0 °F
Feels Like -8 °F
N
4.0
Wind Variable Wind from ESE

Today
High -- | Low -- °F
--% Chance of Precip.
Yesterday
High -- | Low -- °F
Precip. -- in
Pressure 30.43 in
Visibility 7.0 miles
Clouds Overcast 7500 ft
Windchill -8 °F
Dew Point -5 °F
Humidity 74%
Rainfall 0.00 in
Snow Depth Not available.
8:02 AM 4:38 PM
Waxing Gibbous, 86% visible
METAR KFAR 101953Z 10005KT 7SM OVC075 M17/M22 A3035 RMK AO2 SLP305 T11721217
Pressure 30.43 in
Visibility 7.0 miles
Clouds Overcast 7500 ft
Windchill -8 °F
Dew Point -5 °F
Humidity 74%
Rainfall 0.00 in
Snow Depth Not available.
8:02 AM 4:38 PM
Waxing Gibbous, 86% visible
METAR KFAR 101953Z 10005KT 7SM OVC075 M17/M22 A3035 RMK AO2 SLP305 T11721217

10-Day Weather Forecast

Almanac

Astronomy

Dec. 10, 2016 Rise Set
Actual Time
Civil Twilight
Nautical Twilight
Astronomical Twilight
Moon
Length of Visible Light
Length of Day
Tomorrow will be .
, % of the Moon is Illuminated

Today's Extremes

State Highs State Lows

Community

WunderPhotos

Upload Photos

1,956,651 photos uploaded!

WunderBlog® & News

Nearby

Air Quality

  Air Quality AQ Index Pollutant
Not available.

Snow Depth

Station Depth Elevation

Earthquake Activity

City Distance Mag. Time & Date
Minimum magnitude displayed is 2.5.

Coastal Water Temperatures

Place Temperature

Stations

Nearby Weather Stations

Station Location Temp. Windchill Dew Point Humidity Wind Precip. Elev Updated Type
                   

Watches & Warnings

There are currently no watches in effect.